| time (UTC) | temp F | wind direction | speed knots | gust knots | rain 1hr in | rain 24hr in | rain mn in | humidity % | barometer mb |
| 20260509013055 | 60 | 360 | 0.9 | 1.7 | 0.00 | 0.00 | 0.00 | 73 | 1012.3 |
| 20260509011553 | 62 | 352 | 0.0 | 1.7 | 0.00 | 0.00 | 0.00 | 69 | 1012.2 |
| 20260509010050 | 64 | 352 | 0.0 | 1.7 | 0.00 | 0.00 | 0.00 | 64 | 1012.3 |
| 20260509004615 | 67 | 352 | 0.9 | 3.5 | 0.00 | 0.00 | 0.00 | 54 | 1012.2 |
| 20260509003054 | 67 | 352 | 0.9 | 3.5 | 0.00 | 0.00 | 0.00 | 48 | 1012.1 |
| 20260509001554 | 68 | 320 | 1.7 | 4.3 | 0.00 | 0.00 | 0.00 | 47 | 1012.2 |
| 20260509000056 | 68 | 346 | 0.9 | 5.2 | 0.00 | 0.00 | 0.00 | 47 | 1012.3 |
| 20260508234553 | 69 | 331 | 1.7 | 8.7 | 0.00 | 0.00 | 0.00 | 47 | 1012.3 |
| 20260508233052 | 69 | 306 | 1.7 | 8.7 | 0.00 | 0.00 | 0.00 | 45 | 1012.4 |
| 20260508231557 | 69 | 24 | 2.6 | 10.4 | 0.00 | 0.00 | 0.00 | 44 | 1012.5 |
| 20260508230056 | 70 | 338 | 3.5 | 10.4 | 0.00 | 0.00 | 0.00 | 43 | 1012.6 |
| 20260508224553 | 71 | 5 | 2.6 | 9.6 | 0.00 | 0.00 | 0.00 | 43 | 1012.1 |
| 20260508223053 | 70 | 344 | 2.6 | 13.0 | 0.00 | 0.00 | 0.00 | 45 | 1012.0 |
| 20260508221552 | 71 | 21 | 3.5 | 11.3 | 0.00 | 0.00 | 0.00 | 44 | 1012.1 |
| 20260508220056 | 71 | 17 | 3.5 | 11.3 | 0.00 | 0.00 | 0.00 | 42 | 1012.3 |
| 20260508214602 | 71 | 352 | 4.3 | 9.6 | 0.00 | 0.00 | 0.00 | 41 | 1012.3 |
| 20260508213056 | 71 | 141 | 2.6 | 13.0 | 0.00 | 0.00 | 0.00 | 42 | 1012.5 |
| 20260508211557 | 72 | 29 | 3.5 | 9.6 | 0.00 | 0.00 | 0.00 | 41 | 1012.7 |
| 20260508210056 | 72 | 15 | 3.5 | 10.4 | 0.00 | 0.00 | 0.00 | 41 | 1012.6 |
| 20260508204553 | 71 | 262 | 2.6 | 9.6 | 0.00 | 0.00 | 0.00 | 41 | 1012.9 |
| 20260508203054 | 70 | 350 | 2.6 | 10.4 | 0.00 | 0.00 | 0.00 | 43 | 1013.1 |
| 20260508201551 | 70 | 40 | 3.5 | 9.6 | 0.00 | 0.00 | 0.00 | 41 | 1013.4 |
| 20260508200050 | 70 | 360 | 3.5 | 13.9 | 0.00 | 0.00 | 0.00 | 42 | 1013.6 |
| 20260508194556 | 70 | 331 | 5.2 | 12.2 | 0.00 | 0.00 | 0.00 | 41 | 1013.4 |
| 20260508193105 | 70 | 312 | 3.5 | 13.9 | 0.00 | 0.00 | 0.00 | 42 | 1013.6 |
| 20260508191556 | 70 | 352 | 4.3 | 14.8 | 0.00 | 0.00 | 0.00 | 42 | 1013.7 |
| 20260508190105 | 70 | 336 | 7.0 | 17.4 | 0.00 | 0.00 | 0.00 | 41 | 1014.1 |
| 20260508184603 | 70 | 44 | 5.2 | 13.9 | 0.00 | 0.00 | 0.00 | 41 | 1014.2 |
| 20260508183114 | 70 | 342 | 5.2 | 13.9 | 0.00 | 0.00 | 0.00 | 43 | 1014.2 |
| 20260508181559 | 69 | 327 | 3.5 | 10.4 | 0.00 | 0.00 | 0.00 | 42 | 1014.5 |
| 20260508180105 | 69 | 326 | 3.5 | 14.8 | 0.00 | 0.00 | 0.00 | 43 | 1014.9 |
| 20260508174613 | 68 | 38 | 5.2 | 12.2 | 0.00 | 0.00 | 0.00 | 45 | 1015.3 |
| 20260508173054 | 68 | 331 | 3.5 | 13.9 | 0.00 | 0.00 | 0.00 | 44 | 1015.6 |
| 20260508171554 | 68 | 48 | 4.3 | 9.6 | 0.00 | 0.00 | 0.00 | 46 | 1015.9 |
| 20260508170057 | 67 | 87 | 3.5 | 11.3 | 0.00 | 0.00 | 0.00 | 47 | 1016.2 |
| 20260508164553 | 67 | 22 | 3.5 | 10.4 | 0.00 | 0.00 | 0.00 | 46 | 1016.3 |
| 20260508163054 | 67 | 0 | 5.2 | 12.2 | 0.00 | 0.00 | 0.00 | 47 | 1016.6 |
| 20260508161548 | 66 | 5 | 1.7 | 12.2 | 0.00 | 0.00 | 0.00 | 50 | 1016.8 |
| 20260508160052 | 65 | 347 | 4.3 | 11.3 | 0.00 | 0.00 | 0.00 | 49 | 1017.0 |
| 20260508154559 | 65 | 78 | 3.5 | 12.2 | 0.00 | 0.00 | 0.00 | 52 | 1017.2 |
| 20260508153104 | 64 | 98 | 2.6 | 10.4 | 0.00 | 0.00 | 0.00 | 53 | 1017.3 |
| 20260508151603 | 63 | 30 | 2.6 | 10.4 | 0.00 | 0.00 | 0.00 | 53 | 1017.6 |
| 20260508144609 | 62 | 84 | 4.3 | 9.6 | 0.00 | 0.00 | 0.00 | 55 | 1017.7 |
| 20260508143100 | 61 | 350 | 1.7 | 10.4 | 0.00 | 0.00 | 0.00 | 57 | 1017.6 |
| 20260508141605 | 60 | 352 | 0.9 | 11.3 | 0.00 | 0.00 | 0.00 | 60 | 1017.8 |
| 20260508140057 | 59 | 306 | 3.5 | 8.7 | 0.00 | 0.00 | 0.00 | 59 | 1017.9 |
| 20260508134555 | 58 | 122 | 1.7 | 6.1 | 0.00 | 0.00 | 0.00 | 60 | 1017.9 |
| 20260508133056 | 57 | 340 | 0.9 | 8.7 | 0.00 | 0.00 | 0.00 | 61 | 1018.0 |
| 20260508131605 | 56 | 344 | 3.5 | 12.2 | 0.00 | 0.00 | 0.00 | 59 | 1017.8 |
| 20260508130055 | 55 | 63 | 2.6 | 10.4 | 0.00 | 0.00 | 0.00 | 59 | 1017.8 |
| 20260508124554 | 54 | 352 | 0.9 | 5.2 | 0.00 | 0.00 | 0.00 | 64 | 1017.7 |
| 20260508123117 | 52 | 294 | 0.9 | 4.3 | 0.00 | 0.00 | 0.00 | 66 | 1017.7 |
| 20260508121608 | 51 | 0 | 0.9 | 4.3 | 0.00 | 0.00 | 0.00 | 68 | 1017.6 |
| 20260508120111 | 50 | 332 | 0.9 | 6.1 | 0.00 | 0.00 | 0.00 | 69 | 1017.6 |
| 20260508114600 | 49 | 360 | 1.7 | 5.2 | 0.00 | 0.00 | 0.00 | 69 | 1017.6 |
| 20260508113111 | 48 | 324 | 1.7 | 3.5 | 0.00 | 0.00 | 0.00 | 70 | 1017.4 |
| 20260508111553 | 47 | 0 | 0.9 | 3.5 | 0.00 | 0.00 | 0.00 | 71 | 1017.3 |
| 20260508110107 | 47 | 0 | 0.9 | 3.5 | 0.00 | 0.00 | 0.00 | 72 | 1017.3 |
| 20260508104557 | 47 | 342 | 0.0 | 3.5 | 0.00 | 0.00 | 0.00 | 72 | 1017.2 |
| 20260508103108 | 47 | 352 | 0.0 | 3.5 | 0.00 | 0.00 | 0.00 | 73 | 1017.2 |
| 20260508101556 | 46 | 0 | 0.0 | 1.7 | 0.00 | 0.00 | 0.00 | 78 | 1017.1 |
| 20260508100055 | 46 | 0 | 0.0 | 1.7 | 0.00 | 0.00 | 0.00 | 78 | 1017.1 |
| 20260508094552 | 46 | 0 | 0.0 | 1.7 | 0.00 | 0.00 | 0.00 | 78 | 1017.1 |
| 20260508093101 | 45 | 0 | 0.0 | 0.9 | 0.00 | 0.00 | 0.00 | 84 | 1017.0 |
| 20260508091552 | 45 | 0 | 0.0 | 0.9 | 0.00 | 0.00 | 0.00 | 89 | 1016.9 |
| 20260508090100 | 45 | 136 | 0.0 | 1.7 | 0.00 | 0.00 | 0.00 | 88 | 1016.9 |
| 20260508084557 | 45 | 0 | 0.0 | 1.7 | 0.00 | 0.00 | 0.00 | 89 | 1016.9 |
| 20260508083051 | 45 | 0 | 0.0 | 1.7 | 0.00 | 0.00 | 0.00 | 88 | 1016.9 |
| 20260508081558 | 45 | 0 | 0.0 | 1.7 | 0.00 | 0.00 | 0.00 | 87 | 1016.7 |
| 20260508080052 | 45 | 136 | 0.0 | 1.7 | 0.00 | 0.00 | 0.00 | 87 | 1016.8 |
| 20260508074552 | 44 | 0 | 0.0 | 1.7 | 0.00 | 0.00 | 0.00 | 88 | 1016.8 |
| 20260508073056 | 44 | 0 | 0.0 | 0.9 | 0.00 | 0.00 | 0.00 | 89 | 1017.0 |
| 20260508071549 | 44 | 0 | 0.0 | 0.9 | 0.00 | 0.00 | 0.00 | 89 | 1017.2 |
| 20260508070053 | 43 | 0 | 0.0 | 0.9 | 0.00 | 0.00 | 0.00 | 90 | 1017.2 |
| 20260508064558 | 43 | 0 | 0.0 | 1.7 | 0.00 | 0.00 | 0.00 | 91 | 1017.3 |
| 20260508063104 | 43 | 136 | 0.9 | 1.7 | 0.00 | 0.00 | 0.00 | 92 | 1017.4 |
| 20260508061555 | 44 | 0 | 0.0 | 1.7 | 0.00 | 0.00 | 0.00 | 93 | 1017.4 |
| 20260508060058 | 43 | 0 | 0.0 | 0.9 | 0.00 | 0.00 | 0.00 | 93 | 1017.5 |
| 20260508054553 | 43 | 0 | 0.0 | 2.6 | 0.00 | 0.00 | 0.00 | 92 | 1017.7 |
| 20260508053105 | 43 | 0 | 0.0 | 1.7 | 0.00 | 0.00 | 0.00 | 93 | 1017.6 |
| 20260508051553 | 43 | 0 | 0.0 | 1.7 | 0.00 | 0.00 | 0.00 | 92 | 1017.6 |
| 20260508044554 | 44 | 0 | 0.0 | 0.9 | 0.00 | 0.00 | 0.00 | 92 | 1017.5 |
| 20260508043058 | 44 | 0 | 0.0 | 1.7 | 0.00 | 0.00 | 0.00 | 92 | 1017.5 |
| 20260508041559 | 44 | 0 | 0.0 | 0.9 | 0.00 | 0.00 | 0.00 | 91 | 1017.6 |
| 20260508040056 | 44 | 136 | 0.9 | 1.7 | 0.00 | 0.00 | 0.00 | 91 | 1017.5 |
| 20260508034558 | 45 | 0 | 0.0 | 1.7 | 0.00 | 0.00 | 0.00 | 90 | 1017.5 |
| 20260508033109 | 45 | 0 | 0.0 | 0.9 | 0.00 | 0.00 | 0.00 | 90 | 1017.6 |
| 20260508031550 | 45 | 0 | 0.0 | 1.7 | 0.00 | 0.00 | 0.00 | 89 | 1017.6 |
| 20260508030056 | 46 | 0 | 0.0 | 1.7 | 0.00 | 0.00 | 0.00 | 88 | 1017.7 |
| 20260508024554 | 46 | 136 | 0.0 | 1.7 | 0.00 | 0.00 | 0.00 | 87 | 1017.7 |
| 20260508023056 | 47 | 0 | 0.0 | 1.7 | 0.00 | 0.00 | 0.00 | 87 | 1017.6 |
| 20260508021556 | 47 | 0 | 0.0 | 0.9 | 0.00 | 0.00 | 0.00 | 85 | 1017.7 |
| 20260508014551 | 48 | 136 | 0.0 | 2.6 | 0.00 | 0.00 | 0.00 | 81 | 1017.5 |